Time;durP1;ratioP1;P1;durP2;ratioP2;P2;SDS_P1;SDS_P2;PMS_P1;PMS_P2;Temp;Humidity;BMP_temperature;BMP_pressure;BME280_temperature;BME280_humidity;BME280_pressure;Samples;Min_cycle;Max_cycle;Signal;HPM_P1;HPM_P2
2022/11/16 09:21:35;;;;;;;7.97;5.97;;;;;;;12.29;100.00;97643.47;5122292;27;20558;-80
2022/11/16 09:24:03;;;;;;;6.03;5.03;;;;;;;12.87;100.00;97664.78;5071844;28;39017;-85
2022/11/16 09:26:30;;;;;;;5.07;4.57;;;;;;;13.33;100.00;97660.63;5088375;28;41943;-81
2022/11/16 09:29:01;;;;;;;5.00;4.40;;;;;;;13.73;100.00;97657.72;5071342;28;41486;-84
2022/11/16 09:31:32;;;;;;;6.53;4.57;;;;;;;14.18;99.16;97669.31;5071561;28;42328;-85
2022/11/16 09:34:01;;;;;;;4.50;4.10;;;;;;;14.68;96.10;97667.13;5071243;28;40155;-82
2022/11/16 09:36:29;;;;;;;5.27;4.63;;;;;;;15.15;92.44;97648.22;5089416;28;41706;-84
2022/11/16 09:38:59;;;;;;;5.90;5.30;;;;;;;15.79;89.09;97663.06;5088704;28;41790;-81
2022/11/16 09:41:41;;;;;;;6.10;5.20;;;;;;;16.30;85.46;97639.97;5088936;28;43057;-80
2022/11/16 09:44:17;;;;;;;5.30;4.80;;;;;;;16.97;83.32;97676.41;5087167;28;40145;-85
2022/11/16 09:46:48;;;;;;;7.47;4.60;;;;;;;16.83;79.89;97675.22;5088069;28;43329;-83
2022/11/16 09:49:21;;;;;;;7.47;5.37;;;;;;;16.65;80.13;97665.66;5087891;28;43205;-82
2022/11/16 09:51:52;;;;;;;7.03;4.60;;;;;;;16.44;78.73;97639.34;5088425;28;42560;-84
2022/11/16 09:54:25;;;;;;;4.50;3.60;;;;;;;16.85;75.98;97685.75;5085141;28;40222;-83
2022/11/16 09:56:57;;;;;;;4.30;3.37;;;;;;;17.13;75.33;97691.66;5084827;28;41791;-82
2022/11/16 09:59:29;;;;;;;5.20;3.07;;;;;;;17.22;74.37;97690.66;5070661;28;43347;-83
2022/11/16 10:02:01;;;;;;;4.47;2.97;;;;;;;16.98;73.41;97677.25;5088010;28;41046;-85
2022/11/16 10:04:38;;;;;;;2.60;2.10;;;;;;;16.91;72.83;97670.91;5071129;28;39046;-81
2022/11/16 10:07:12;;;;;;;3.60;2.13;;;;;;;17.11;71.96;97689.13;5070976;28;41087;-81
2022/11/16 10:09:42;;;;;;;3.77;1.53;;;;;;;17.31;70.86;97700.34;5087222;28;45327;-80
2022/11/16 10:12:21;;;;;;;1.50;1.40;;;;;;;17.35;69.25;97684.81;5088337;28;42880;-84
2022/11/16 10:15:03;;;;;;;2.83;1.60;;;;;;;17.92;68.14;97699.03;5085740;28;40069;-82
2022/11/16 10:17:46;;;;;;;1.67;1.40;;;;;;;20.22;63.11;97718.81;5087293;28;42609;-81
2022/11/16 10:20:41;;;;;;;1.33;1.23;;;;;;;21.05;59.57;97718.47;5087237;28;42951;-83
2022/11/16 10:23:17;;;;;;;2.00;1.30;;;;;;;22.35;57.40;97713.69;5085368;28;42987;-83
2022/11/16 10:25:51;;;;;;;2.70;2.17;;;;;;;22.56;55.64;97710.91;5086416;28;39735;-80
2022/11/16 10:29:00;;;;;;;1.60;1.00;;;;;;;22.04;55.65;97726.72;5085195;28;42207;-80
2022/11/16 10:31:44;;;;;;;4.57;1.10;;;;;;;22.56;54.99;97704.66;5049667;28;42599;-80
2022/11/16 10:34:19;;;;;;;1.37;1.00;;;;;;;22.36;54.00;97719.91;5056438;28;42620;-83
2022/11/16 10:36:47;;;;;;;2.00;1.40;;;;;;;22.89;53.92;97694.03;5071816;28;40799;-80
2022/11/16 10:39:18;;;;;;;1.53;0.80;;;;;;;22.48;55.31;97702.97;5073661;28;41506;-83
2022/11/16 10:41:48;;;;;;;1.17;1.00;;;;;;;22.44;54.93;97706.25;5071362;28;43526;-81
2022/11/16 10:44:26;;;;;;;2.03;1.07;;;;;;;21.92;55.57;97674.34;5074558;28;41887;-83
2022/11/16 10:46:59;;;;;;;1.50;1.07;;;;;;;21.92;55.02;97706.69;5056950;28;39083;-81
2022/11/16 10:49:34;;;;;;;2.20;1.10;;;;;;;22.82;52.75;97717.50;5055928;28;41537;-82
2022/11/16 10:52:02;;;;;;;1.60;1.03;;;;;;;23.53;50.24;97721.47;5073242;28;41611;-80
2022/11/16 10:54:30;;;;;;;2.20;1.40;;;;;;;22.92;50.97;97715.25;5073161;28;42303;-82
2022/11/16 10:57:04;;;;;;;1.60;1.30;;;;;;;22.03;52.12;97711.56;5056599;28;38494;-82
2022/11/16 10:59:42;;;;;;;1.53;1.13;;;;;;;21.08;54.33;97677.72;5070647;28;41853;-80
2022/11/16 11:02:29;;;;;;;1.73;1.00;;;;;;;20.28;53.18;97701.91;5069981;28;43547;-81
2022/11/16 11:05:15;;;;;;;2.57;1.13;;;;;;;19.51;56.29;97687.91;5073540;28;42220;-81
2022/11/16 11:07:46;;;;;;;1.57;1.00;;;;;;;18.91;57.38;97675.22;5056040;28;40124;-80
2022/11/16 11:10:30;;;;;;;3.83;1.40;;;;;;;18.96;58.31;97653.22;5055796;28;41904;-82
2022/11/16 11:13:08;;;;;;;2.20;0.97;;;;;;;19.57;55.55;97681.81;5072642;28;43359;-81
2022/11/16 11:15:36;;;;;;;2.23;1.13;;;;;;;20.90;54.16;97679.97;5073004;28;42203;-80
2022/11/16 11:18:12;;;;;;;1.87;0.83;;;;;;;20.46;54.33;97687.31;5073677;28;39910;-80
2022/11/16 11:20:41;;;;;;;2.13;1.20;;;;;;;20.15;55.24;97661.44;5072269;28;40371;-81
2022/11/16 11:23:15;;;;;;;2.47;1.10;;;;;;;21.99;52.71;97686.06;5072369;28;42902;-81
2022/11/16 11:25:50;;;;;;;1.77;1.40;;;;;;;23.58;47.76;97716.28;5072595;28;41330;-80
2022/11/16 11:28:24;;;;;;;1.50;1.07;;;;;;;24.39;45.10;97713.38;5073915;28;40018;-81
2022/11/16 11:30:56;;;;;;;1.60;1.10;;;;;;;25.76;45.40;97721.13;5072758;28;42180;-80
2022/11/16 11:33:29;;;;;;;1.30;1.17;;;;;;;28.10;41.58;97729.69;5072696;28;41373;-81
2022/11/16 11:36:04;;;;;;;3.20;1.13;;;;;;;30.98;37.39;97769.16;5055717;28;41473;-81
2022/11/16 11:38:32;;;;;;;1.95;1.30;;;;;;;33.09;33.32;97767.94;5069482;28;39771;-82
2022/11/16 11:41:03;;;;;;;3.60;1.00;;;;;;;34.45;29.19;97769.41;5072046;28;41527;-80
2022/11/16 11:43:33;;;;;;;2.42;1.40;;;;;;;35.65;28.35;97782.31;5067963;28;43036;-80
2022/11/16 11:46:08;;;;;;;1.98;1.00;;;;;;;36.60;25.77;97788.28;5071686;28;42105;-80
2022/11/16 11:48:49;;;;;;;2.97;0.98;;;;;;;37.33;24.57;97788.16;5055544;28;38985;-80
2022/11/16 11:51:24;;;;;;;2.05;0.80;;;;;;;36.37;25.53;97783.53;5071735;28;40604;-80
2022/11/16 11:53:55;;;;;;;1.80;1.20;;;;;;;35.26;25.70;97784.97;5069201;28;42372;-80
2022/11/16 11:56:24;;;;;;;1.45;0.93;;;;;;;35.27;25.47;97781.94;5070848;28;42291;-80
2022/11/16 11:58:53;;;;;;;1.48;1.08;;;;;;;33.53;26.99;97762.09;5072135;28;40375;-79
2022/11/16 12:01:55;;;;;;;1.47;1.17;;;;;;;32.56;27.16;97760.72;5071609;28;42700;-79
2022/11/16 12:04:59;;;;;;;1.73;1.00;;;;;;;30.42;30.02;97744.78;5054957;28;42676;-80
2022/11/16 12:07:39;;;;;;;1.90;1.20;;;;;;;30.49;31.37;97739.97;5071733;28;41423;-81
2022/11/16 12:10:19;;;;;;;2.60;1.30;;;;;;;30.00;31.24;97737.03;5068815;28;39823;-80
2022/11/16 12:13:01;;;;;;;2.03;1.17;;;;;;;31.55;28.62;97752.34;5070960;28;41888;-81
2022/11/16 12:15:42;;;;;;;2.00;1.60;;;;;;;32.63;28.21;97750.38;5054744;28;43361;-80
2022/11/16 12:18:27;;;;;;;1.52;1.40;;;;;;;34.43;26.06;97777.09;5071347;28;43341;-81
2022/11/16 12:21:02;;;;;;;1.88;0.80;;;;;;;35.49;25.55;97761.44;5054944;28;39239;-81
2022/11/16 12:23:59;;;;;;;3.97;1.17;;;;;;;33.64;27.79;97747.28;5068620;28;42456;-80
2022/11/16 12:26:37;;;;;;;2.97;1.30;;;;;;;31.80;29.55;97726.34;5071435;28;43751;-81
2022/11/16 12:29:20;;;;;;;1.73;1.30;;;;;;;30.58;30.22;97733.03;5054704;28;40808;-80
2022/11/16 12:32:24;;;;;;;2.90;1.30;;;;;;;31.88;29.29;97739.59;5071237;28;40135;-80
2022/11/16 12:35:06;;;;;;;2.63;1.20;;;;;;;34.14;27.25;97745.72;5068195;28;42162;-81
2022/11/16 12:37:41;;;;;;;2.15;1.20;;;;;;;35.27;26.09;97726.06;5054206;28;44079;-80
2022/11/16 12:40:27;;;;;;;2.00;1.17;;;;;;;36.13;24.82;97755.03;5054671;28;42278;-81
2022/11/16 12:43:02;;;;;;;2.20;1.08;;;;;;;36.33;25.39;97746.63;5071911;28;40929;-81
2022/11/16 12:46:03;;;;;;;2.58;1.05;;;;;;;36.74;23.48;97751.78;5071432;28;40215;-80
2022/11/16 12:49:02;;;;;;;2.33;1.27;;;;;;;36.13;23.64;97744.81;5071048;28;43759;-80
2022/11/16 12:51:48;;;;;;;3.67;1.45;;;;;;;35.02;25.00;97739.88;5052663;28;41381;-80
2022/11/16 12:54:40;;;;;;;3.50;1.20;;;;;;;32.62;26.48;97721.28;5053911;28;38839;-81
2022/11/16 12:57:19;;;;;;;2.47;1.47;;;;;;;30.75;27.39;97719.34;5071127;28;41043;-81
2022/11/16 13:00:12;;;;;;;2.27;1.30;;;;;;;29.26;28.45;97717.03;5070984;28;43243;-81
2022/11/16 13:03:15;;;;;;;1.47;0.80;;;;;;;27.52;30.46;97700.44;5067640;28;43316;-80
2022/11/16 13:05:55;;;;;;;2.10;1.30;;;;;;;26.13;31.91;97689.50;5060124;28;40230;-80
2022/11/16 13:08:36;;;;;;;1.77;1.13;;;;;;;25.09;32.87;97691.94;5060786;28;42606;-79
2022/11/16 13:11:11;;;;;;;2.50;1.30;;;;;;;24.14;34.51;97677.16;5051369;28;41848;-81
2022/11/16 13:13:41;;;;;;;4.07;1.53;;;;;;;22.98;35.75;97625.34;5067926;28;41267;-79
2022/11/16 13:16:15;;;;;;;3.93;1.40;;;;;;;22.48;36.77;97661.66;5050390;28;39585;-82
2022/11/16 13:18:44;;;;;;;2.33;1.30;;;;;;;21.75;38.00;97658.50;5064562;28;41696;-80
2022/11/16 13:21:34;;;;;;;3.60;1.20;;;;;;;20.98;38.62;97631.44;5068149;28;43605;-79
2022/11/16 13:24:44;;;;;;;2.93;1.00;;;;;;;20.58;40.37;97632.84;5063953;28;41942;-79
2022/11/16 13:27:29;;;;;;;2.93;0.90;;;;;;;20.04;41.22;97625.06;5067946;28;40835;-81
2022/11/16 13:30:03;;;;;;;1.33;0.77;;;;;;;19.55;42.02;97592.53;5068887;28;41774;-80
2022/11/16 13:32:46;;;;;;;2.33;0.90;;;;;;;19.33;43.59;97604.13;5045891;28;41373;-80
2022/11/16 13:35:16;;;;;;;0.90;0.80;;;;;;;19.07;43.99;97600.97;5051094;28;43189;-80
2022/11/16 13:37:47;;;;;;;2.53;0.80;;;;;;;18.79;44.40;97601.50;5047367;28;38847;-80
2022/11/16 13:40:27;;;;;;;4.20;1.27;;;;;;;18.56;45.06;97595.25;5068983;28;41657;-80
2022/11/16 13:43:03;;;;;;;3.37;1.30;;;;;;;18.29;45.89;97593.91;5060458;28;42677;-79
2022/11/16 13:45:34;;;;;;;3.07;0.90;;;;;;;18.01;46.15;97585.50;5050811;28;42461;-82
2022/11/16 13:48:07;;;;;;;3.50;1.33;;;;;;;17.93;46.02;97601.56;5050664;28;41505;-80
2022/11/16 13:50:38;;;;;;;3.07;0.90;;;;;;;17.79;46.79;97596.97;5068701;28;41794;-80
2022/11/16 13:53:14;;;;;;;2.07;1.10;;;;;;;17.63;47.61;97580.91;5066474;28;42926;-79
2022/11/16 13:55:45;;;;;;;5.73;1.43;;;;;;;17.27;47.94;97573.28;5048698;28;41184;-80
2022/11/16 13:58:21;;;;;;;2.53;1.10;;;;;;;16.92;48.10;97536.19;5067920;28;39852;-80
2022/11/16 14:00:57;;;;;;;2.33;1.10;;;;;;;17.17;48.62;97578.81;5047547;28;40882;-80
2022/11/16 14:03:29;;;;;;;3.70;1.07;;;;;;;17.14;49.07;97581.81;5066964;28;41341;-80
2022/11/16 14:05:56;;;;;;;3.63;1.03;;;;;;;17.16;49.51;97573.63;5063924;28;41096;-80
2022/11/16 14:08:47;;;;;;;2.73;1.03;;;;;;;17.19;49.54;97571.41;5070392;28;39778;-80
2022/11/16 14:11:36;;;;;;;2.10;0.90;;;;;;;17.17;49.84;97548.53;5068636;28;40841;-80
2022/11/16 14:14:05;;;;;;;2.60;1.00;;;;;;;17.34;50.51;97560.03;5070342;28;44319;-79
2022/11/16 14:16:54;;;;;;;3.33;1.50;;;;;;;17.43;50.56;97564.41;5071548;28;42300;-80
2022/11/16 14:19:53;;;;;;;2.80;1.13;;;;;;;17.67;50.89;97564.38;5072819;28;39691;-80
2022/11/16 14:22:45;;;;;;;5.23;1.40;;;;;;;18.08;49.80;97566.88;5074402;28;40800;-79
2022/11/16 14:25:38;;;;;;;4.60;1.33;;;;;;;18.18;49.04;97564.81;5073912;28;41615;-80
2022/11/16 14:28:31;;;;;;;2.60;1.00;;;;;;;18.10;49.99;97557.66;5070501;28;42509;-80
2022/11/16 14:31:13;;;;;;;3.70;1.30;;;;;;;17.92;50.24;97543.69;5056878;28;39189;-79
2022/11/16 14:33:41;;;;;;;3.73;1.17;;;;;;;17.77;50.31;97553.44;5073253;28;40515;-80
2022/11/16 14:36:10;;;;;;;3.20;1.10;;;;;;;17.35;51.13;97513.53;5056524;28;41664;-79
2022/11/16 14:38:40;;;;;;;2.23;1.20;;;;;;;17.38;51.17;97546.16;5073292;28;42313;-79
2022/11/16 14:41:19;;;;;;;3.37;1.30;;;;;;;17.16;51.63;97544.19;5056624;28;39000;-80
2022/11/16 14:43:50;;;;;;;3.10;1.20;;;;;;;16.85;51.63;97528.81;5056195;28;43468;-80
2022/11/16 14:46:22;;;;;;;2.53;1.40;;;;;;;16.82;52.33;97545.19;5056525;28;41902;-80
2022/11/16 14:48:50;;;;;;;4.47;1.70;;;;;;;16.66;52.05;97544.38;5071358;28;43753;-79
2022/11/16 14:51:22;;;;;;;4.23;1.47;;;;;;;16.35;52.53;97517.41;5074757;28;40165;-80
2022/11/16 14:53:54;;;;;;;1.50;1.00;;;;;;;16.34;52.72;97534.41;5072304;28;41542;-79
2022/11/16 14:56:23;;;;;;;1.93;0.93;;;;;;;16.40;53.17;97549.81;5056755;28;41417;-80
2022/11/16 14:58:51;;;;;;;1.50;1.10;;;;;;;16.32;52.75;97547.13;5056012;28;42377;-80
2022/11/16 15:01:23;;;;;;;1.63;1.20;;;;;;;16.05;53.02;97514.34;5074458;28;40445;-80
2022/11/16 15:03:55;;;;;;;2.53;1.20;;;;;;;16.13;53.00;97556.25;5055937;28;41727;-80
2022/11/16 15:06:25;;;;;;;3.27;1.37;;;;;;;15.91;52.94;97528.31;5073085;28;42701;-80
2022/11/16 15:08:57;;;;;;;2.03;1.37;;;;;;;15.88;53.11;97539.31;5074101;28;43113;-80
2022/11/16 15:12:40;;;;;;;2.30;1.03;;;;;;;15.78;53.13;97525.25;5073304;28;40024;-80
2022/11/16 15:14:19;;;;;;;2.40;1.40;;;;;;;15.63;53.15;97516.19;5055883;28;40592;-80
2022/11/16 15:16:50;;;;;;;3.03;1.60;;;;;;;15.55;53.59;97516.16;5055975;28;41527;-80
2022/11/16 15:19:17;;;;;;;3.20;1.50;;;;;;;15.38;53.90;97500.03;5055017;28;41131;-80
2022/11/16 15:21:51;;;;;;;3.20;1.47;;;;;;;15.39;53.98;97523.03;5056015;28;40504;-80
2022/11/16 15:24:24;;;;;;;3.33;1.60;;;;;;;15.38;54.12;97537.38;5071571;28;41672;-80
2022/11/16 15:26:53;;;;;;;2.80;1.10;;;;;;;15.18;54.42;97519.94;5055711;28;41968;-80
2022/11/16 15:29:24;;;;;;;2.17;1.20;;;;;;;15.08;54.49;97520.00;5071932;28;41071;-81
2022/11/16 15:31:52;;;;;;;2.10;1.27;;;;;;;14.90;54.60;97519.22;5072930;28;40207;-79
2022/11/16 15:34:20;;;;;;;2.60;1.00;;;;;;;14.99;54.83;97536.09;5055397;28;41776;-80
2022/11/16 15:36:48;;;;;;;4.13;1.40;;;;;;;14.90;55.32;97537.03;5055739;28;41843;-81
2022/11/16 15:39:21;;;;;;;1.73;1.10;;;;;;;14.58;55.91;97484.34;5072199;28;42443;-80
2022/11/16 15:41:50;;;;;;;4.07;1.43;;;;;;;14.62;56.61;97518.50;5069499;28;40644;-79
2022/11/16 15:44:21;;;;;;;2.40;1.43;;;;;;;14.39;56.53;97495.94;5071850;28;40668;-80
2022/11/16 15:46:51;;;;;;;3.57;1.70;;;;;;;14.33;56.80;97505.41;5069216;28;44177;-80
2022/11/16 15:49:27;;;;;;;3.23;2.13;;;;;;;14.25;57.02;97520.44;5072169;28;41957;-80
2022/11/16 15:51:55;;;;;;;4.30;2.83;;;;;;;13.94;57.18;97472.91;5071219;28;40638;-80
2022/11/16 15:54:24;;;;;;;2.77;2.40;;;;;;;14.17;57.27;97529.19;5073945;28;40777;-81
2022/11/16 15:56:55;;;;;;;5.60;2.73;;;;;;;14.11;57.72;97518.31;5056840;28;41910;-80
2022/11/16 15:59:30;;;;;;;4.90;2.67;;;;;;;13.87;57.86;97501.09;5071972;28;41945;-81
2022/11/16 16:01:58;;;;;;;5.17;3.10;;;;;;;13.85;59.01;97513.69;5071095;28;40290;-81
2022/11/16 16:04:26;;;;;;;6.93;2.63;;;;;;;13.76;59.57;97503.97;5072248;28;41039;-81
2022/11/16 16:06:56;;;;;;;4.77;2.27;;;;;;;13.68;59.44;97511.84;5072577;28;41668;-80
2022/11/16 16:09:27;;;;;;;4.27;2.20;;;;;;;13.61;59.77;97511.59;5072088;28;43211;-80
2022/11/16 16:12:10;;;;;;;4.87;2.20;;;;;;;13.64;60.48;97518.44;5072293;28;40098;-80
2022/11/16 16:14:39;;;;;;;5.17;2.00;;;;;;;13.62;60.39;97512.44;5071394;28;42686;-80
2022/11/16 16:17:09;;;;;;;3.60;1.60;;;;;;;13.49;60.76;97488.00;5055107;28;41637;-80
2022/11/16 16:19:40;;;;;;;4.97;1.70;;;;;;;13.58;60.64;97511.91;5071024;28;40963;-80
2022/11/16 16:22:13;;;;;;;3.70;1.80;;;;;;;13.57;60.37;97504.06;5055201;28;42129;-80
2022/11/16 16:24:44;;;;;;;4.07;1.77;;;;;;;13.40;60.51;97479.09;5071837;28;41787;-81
2022/11/16 16:27:17;;;;;;;3.07;1.60;;;;;;;13.48;61.48;97483.66;5069158;28;43751;-80
2022/11/16 16:29:47;;;;;;;2.40;1.63;;;;;;;13.48;61.60;97486.31;5071290;28;41255;-80
2022/11/16 16:32:24;;;;;;;5.30;2.17;;;;;;;13.44;61.94;97493.78;5072398;28;38490;-80
2022/11/16 16:34:51;;;;;;;3.70;2.40;;;;;;;13.43;61.31;97496.56;5071905;28;41513;-80
2022/11/16 16:37:20;;;;;;;2.90;1.87;;;;;;;13.41;61.09;97498.53;5071963;28;42691;-80
2022/11/16 16:39:48;;;;;;;3.13;1.87;;;;;;;13.43;61.02;97501.88;5071301;28;42069;-80
2022/11/16 16:42:16;;;;;;;5.90;2.43;;;;;;;13.40;61.34;97494.19;5073129;28;39975;-80
2022/11/16 16:44:47;;;;;;;5.90;2.90;;;;;;;13.38;61.98;97481.03;5072624;28;42691;-80
2022/11/16 16:47:15;;;;;;;4.67;2.60;;;;;;;13.25;62.07;97472.56;5071657;28;42778;-80
2022/11/16 16:49:43;;;;;;;5.20;2.93;;;;;;;13.36;62.04;97484.84;5071421;28;41107;-80
2022/11/16 16:52:12;;;;;;;5.27;3.10;;;;;;;13.23;62.56;97462.06;5071742;28;40286;-80
2022/11/16 16:54:40;;;;;;;3.90;2.80;;;;;;;13.33;62.84;97477.16;5072469;28;41855;-80
2022/11/16 16:57:13;;;;;;;4.57;2.93;;;;;;;13.18;62.80;97455.53;5071519;28;42938;-80
2022/11/16 16:59:40;;;;;;;3.37;2.30;;;;;;;13.30;62.63;97479.13;5070511;28;43212;-81
2022/11/16 17:02:11;;;;;;;3.77;2.13;;;;;;;13.27;63.17;97471.44;5054788;28;38882;-81
2022/11/16 17:04:39;;;;;;;2.57;2.03;;;;;;;13.14;62.83;97454.97;5071751;28;42119;-82
2022/11/16 17:07:07;;;;;;;3.37;2.10;;;;;;;13.19;63.18;97475.81;5071094;28;43115;-81
2022/11/16 17:09:34;;;;;;;3.47;2.63;;;;;;;13.08;63.57;97474.16;5054703;28;41033;-81
2022/11/16 17:12:02;;;;;;;4.10;2.60;;;;;;;13.00;63.74;97473.19;5071530;28;39811;-80
2022/11/16 17:14:29;;;;;;;4.23;2.70;;;;;;;12.93;63.93;97471.13;5072306;28;41881;-80
2022/11/16 17:16:57;;;;;;;3.57;2.20;;;;;;;12.79;63.72;97460.94;5071206;28;41897;-80
2022/11/16 17:19:27;;;;;;;3.93;2.40;;;;;;;12.81;64.27;97471.44;5070946;28;42265;-81
2022/11/16 17:21:55;;;;;;;2.90;2.60;;;;;;;12.76;64.46;97471.00;5068348;28;39909;-81
2022/11/16 17:24:23;;;;;;;6.30;2.80;;;;;;;12.58;64.96;97447.84;5071206;28;41660;-81
2022/11/16 17:26:51;;;;;;;5.07;2.70;;;;;;;12.62;64.78;97459.00;5071117;28;41758;-81
2022/11/16 17:29:18;;;;;;;6.00;3.67;;;;;;;12.61;65.38;97456.53;5071050;28;41971;-81
2022/11/16 17:31:47;;;;;;;5.00;3.17;;;;;;;12.66;65.39;97463.06;5072476;28;40469;-81
2022/11/16 17:34:14;;;;;;;5.33;2.83;;;;;;;12.63;66.14;97466.00;5054063;28;42143;-81
2022/11/16 17:36:44;;;;;;;5.43;3.00;;;;;;;12.52;66.02;97448.41;5072277;28;42779;-81
2022/11/16 17:39:11;;;;;;;4.20;2.70;;;;;;;12.63;66.35;97459.84;5054141;28;42092;-81
2022/11/16 17:41:39;;;;;;;4.80;3.40;;;;;;;12.61;66.30;97451.22;5072283;28;40169;-81
2022/11/16 17:44:07;;;;;;;4.87;3.47;;;;;;;12.62;66.27;97455.50;5074339;28;41945;-80
2022/11/16 17:46:35;;;;;;;4.60;3.00;;;;;;;12.62;66.34;97452.88;5074324;28;43322;-80
2022/11/16 17:49:03;;;;;;;3.37;2.90;;;;;;;12.59;66.16;97454.84;5056861;28;40944;-81
2022/11/16 17:51:30;;;;;;;3.27;2.60;;;;;;;12.38;66.05;97417.00;5074400;28;39013;-81
2022/11/16 17:54:00;;;;;;;5.53;2.40;;;;;;;12.42;66.34;97422.88;5075309;28;41813;-81
2022/11/16 17:56:28;;;;;;;5.37;2.43;;;;;;;12.47;67.11;97426.78;5057327;28;41826;-80
2022/11/16 17:58:58;;;;;;;4.17;2.63;;;;;;;12.38;67.14;97424.13;5074092;28;42431;-80
2022/11/16 18:01:26;;;;;;;4.67;2.73;;;;;;;12.44;67.24;97435.03;5057404;28;38653;-80
2022/11/16 18:03:54;;;;;;;4.40;2.60;;;;;;;12.40;67.42;97428.31;5056850;28;40816;-80
2022/11/16 18:06:23;;;;;;;3.87;2.73;;;;;;;12.39;67.35;97434.59;5057491;28;41712;-80
2022/11/16 18:08:51;;;;;;;4.43;2.43;;;;;;;12.22;67.49;97424.72;5073801;28;41990;-80
2022/11/16 18:11:23;;;;;;;4.00;2.33;;;;;;;12.33;67.58;97448.44;5057281;28;39733;-80
2022/11/16 18:13:53;;;;;;;5.80;2.97;;;;;;;12.20;67.66;97427.50;5072688;28;41864;-80
2022/11/16 18:16:22;;;;;;;5.87;2.97;;;;;;;12.23;68.08;97439.66;5073477;28;43292;-80
2022/11/16 18:18:56;;;;;;;5.93;2.87;;;;;;;12.18;68.24;97442.72;5073489;28;42265;-80
2022/11/16 18:21:25;;;;;;;5.33;3.33;;;;;;;12.03;68.45;97427.34;5056514;28;39373;-82
2022/11/16 18:23:53;;;;;;;7.10;3.70;;;;;;;11.90;68.75;97416.19;5073514;28;40909;-81
2022/11/16 18:26:23;;;;;;;5.30;3.30;;;;;;;11.85;68.93;97419.28;5056619;28;42487;-81
2022/11/16 18:28:54;;;;;;;5.53;3.23;;;;;;;11.92;68.69;97432.81;5074368;28;41086;-80
2022/11/16 18:31:23;;;;;;;4.17;2.43;;;;;;;11.86;68.79;97432.41;5058022;28;39139;-81
2022/11/16 18:33:52;;;;;;;4.50;2.63;;;;;;;11.87;69.05;97439.34;5057066;28;42461;-82
2022/11/16 18:36:20;;;;;;;4.93;3.07;;;;;;;11.91;68.56;97436.44;5057114;28;41544;-80
2022/11/16 18:38:49;;;;;;;6.10;3.60;;;;;;;11.91;69.23;97439.94;5074226;28;42851;-80
2022/11/16 18:41:19;;;;;;;4.53;3.80;;;;;;;11.73;69.31;97417.69;5056981;28;39875;-80
2022/11/16 18:43:53;;;;;;;5.23;3.93;;;;;;;11.84;70.18;97431.69;5056543;28;40768;-81
2022/11/16 18:46:23;;;;;;;6.50;4.13;;;;;;;11.71;70.16;97407.22;5056788;28;41873;-80
2022/11/16 18:48:51;;;;;;;5.13;2.97;;;;;;;11.66;71.64;97390.03;5056366;28;42752;-80
2022/11/16 18:51:20;;;;;;;7.03;3.57;;;;;;;11.77;70.47;97408.50;5073550;28;41590;-80
2022/11/16 18:53:48;;;;;;;3.47;2.90;;;;;;;11.73;70.95;97402.63;5072790;28;41367;-80
2022/11/16 18:56:16;;;;;;;5.27;3.27;;;;;;;11.74;71.27;97398.16;5056398;28;43392;-80
2022/11/16 18:58:44;;;;;;;6.20;3.87;;;;;;;11.78;71.42;97400.41;5056359;28;41314;-80
2022/11/16 19:01:15;;;;;;;5.50;3.50;;;;;;;11.69;71.79;97380.00;5073356;28;39017;-80
2022/11/16 19:03:43;;;;;;;4.23;3.37;;;;;;;11.64;71.16;97376.06;5056878;28;40811;-80
2022/11/16 19:06:11;;;;;;;5.77;3.20;;;;;;;11.66;71.22;97366.19;5056034;28;41898;-80
2022/11/16 19:08:40;;;;;;;4.53;3.37;;;;;;;11.77;71.19;97390.78;5072751;28;41140;-80
2022/11/16 19:11:10;;;;;;;4.20;3.20;;;;;;;11.61;70.86;97361.31;5056547;28;39093;-80
2022/11/16 19:13:38;;;;;;;4.10;3.20;;;;;;;11.38;70.77;97328.06;5056332;28;40639;-80
2022/11/16 19:16:07;;;;;;;4.83;3.73;;;;;;;11.63;70.85;97359.34;5056138;28;41795;-80
2022/11/16 19:18:37;;;;;;;5.17;3.70;;;;;;;11.63;71.04;97355.84;5055992;28;42211;-80
2022/11/16 19:21:06;;;;;;;7.63;3.90;;;;;;;11.72;71.15;97369.13;5055984;28;40634;-80
2022/11/16 19:23:38;;;;;;;7.13;3.37;;;;;;;11.71;71.16;97366.59;5056237;28;42121;-80
2022/11/16 19:26:06;;;;;;;5.87;3.47;;;;;;;11.76;71.01;97375.84;5072932;28;43206;-80
2022/11/16 19:28:37;;;;;;;3.23;2.73;;;;;;;11.81;71.31;97378.91;5055910;28;41676;-79
2022/11/16 19:31:11;;;;;;;7.23;3.30;;;;;;;11.77;71.21;97377.50;5055957;28;39020;-80
2022/11/16 19:33:40;;;;;;;6.97;3.23;;;;;;;11.72;71.20;97358.53;5072465;28;41531;-80
2022/11/16 19:36:09;;;;;;;4.67;3.37;;;;;;;11.81;71.04;97378.91;5055625;28;41964;-81
2022/11/16 19:38:37;;;;;;;3.90;3.10;;;;;;;11.85;71.13;97374.19;5055394;28;42191;-80
2022/11/16 19:41:06;;;;;;;4.90;3.37;;;;;;;11.77;70.97;97366.91;5072513;28;39928;-80
2022/11/16 19:43:34;;;;;;;3.93;2.90;;;;;;;11.68;71.30;97351.81;5072275;28;40565;-81
2022/11/16 19:46:03;;;;;;;5.10;3.57;;;;;;;11.86;71.20;97379.34;5049916;28;41882;-83
2022/11/16 19:48:31;;;;;;;5.20;3.10;;;;;;;11.84;71.12;97378.66;5051431;28;42693;-81
2022/11/16 19:51:06;;;;;;;3.80;3.07;;;;;;;11.69;70.86;97339.38;5054819;28;38952;-83
2022/11/16 19:53:34;;;;;;;3.73;2.83;;;;;;;11.57;71.11;97327.25;5051672;28;41034;-82
2022/11/16 19:56:02;;;;;;;3.73;2.60;;;;;;;11.88;70.60;97380.03;5058714;28;43104;-81
2022/11/16 19:58:30;;;;;;;3.00;2.70;;;;;;;11.72;70.59;97352.38;5054488;28;42672;-80
2022/11/16 20:01:02;;;;;;;4.20;2.67;;;;;;;11.87;70.67;97378.34;5055079;28;40002;-82
2022/11/16 20:03:30;;;;;;;5.53;3.23;;;;;;;11.51;71.08;97321.50;5054123;28;40922;-81
2022/11/16 20:06:09;;;;;;;5.90;2.83;;;;;;;11.80;70.96;97381.72;5054646;28;41899;-82
2022/11/16 20:08:38;;;;;;;4.13;3.17;;;;;;;11.80;70.94;97387.84;5069345;28;42432;-83
2022/11/16 20:11:13;;;;;;;4.70;3.37;;;;;;;11.85;71.52;97390.94;5054729;28;39012;-80
2022/11/16 20:13:42;;;;;;;5.13;3.13;;;;;;;11.85;71.39;97393.59;5069560;28;41756;-81
2022/11/16 20:16:11;;;;;;;4.63;3.07;;;;;;;11.84;71.64;97386.59;5054632;28;44587;-82
2022/11/16 20:18:40;;;;;;;5.27;3.20;;;;;;;11.85;71.66;97390.94;5071139;28;42607;-82
2022/11/16 20:21:13;;;;;;;5.37;2.87;;;;;;;11.59;71.46;97347.34;5070700;28;40129;-83
2022/11/16 20:23:42;;;;;;;4.67;3.17;;;;;;;11.73;71.34;97368.16;5054295;28;40651;-80
2022/11/16 20:26:12;;;;;;;5.53;3.63;;;;;;;11.75;71.94;97374.16;5054346;28;43393;-82
2022/11/16 20:28:42;;;;;;;6.30;3.97;;;;;;;11.80;72.97;97371.94;5071012;28;41361;-81
2022/11/16 20:31:13;;;;;;;8.40;4.90;;;;;;;11.76;73.75;97367.03;5071036;28;40356;-82
2022/11/16 20:33:49;;;;;;;8.80;4.90;;;;;;;11.68;74.65;97349.16;5070338;28;41813;-82
2022/11/16 20:36:19;;;;;;;8.97;5.07;;;;;;;11.71;74.13;97356.84;5054458;28;42830;-82
2022/11/16 20:38:47;;;;;;;13.60;7.33;;;;;;;11.53;73.90;97331.97;5053861;28;43089;-82
2022/11/16 20:41:16;;;;;;;15.90;7.87;;;;;;;11.35;74.32;97315.09;5054469;28;38856;-80
2022/11/16 20:43:45;;;;;;;9.70;6.87;;;;;;;11.63;74.42;97353.19;5054266;28;41114;-80
2022/11/16 20:46:16;;;;;;;10.63;6.93;;;;;;;11.72;74.38;97371.78;5053927;28;42782;-81
2022/11/16 20:48:44;;;;;;;9.87;6.10;;;;;;;11.62;73.97;97357.66;5054205;28;42363;-84
2022/11/16 20:51:14;;;;;;;8.50;5.50;;;;;;;11.42;73.93;97332.13;5054434;28;39842;-84
2022/11/16 20:53:43;;;;;;;11.33;5.40;;;;;;;11.71;73.46;97378.06;5054335;28;41125;-80
2022/11/16 20:56:12;;;;;;;7.57;5.53;;;;;;;11.72;73.59;97373.59;5068209;28;43197;-80
2022/11/16 20:58:40;;;;;;;6.87;5.00;;;;;;;11.71;73.43;97370.09;5071045;28;41254;-81
2022/11/16 21:01:11;;;;;;;6.57;4.77;;;;;;;11.71;73.42;97372.75;5049748;28;38952;-80
2022/11/16 21:03:38;;;;;;;9.50;4.67;;;;;;;11.69;73.58;97369.41;5052399;28;40635;-81
2022/11/16 21:06:07;;;;;;;6.83;4.40;;;;;;;11.58;74.21;97350.13;5068211;28;43437;-80
2022/11/16 21:08:36;;;;;;;7.37;4.10;;;;;;;11.65;73.98;97369.81;5068477;28;42274;-80
2022/11/16 21:11:12;;;;;;;5.00;4.23;;;;;;;11.59;74.47;97368.56;5068442;28;39847;-80
2022/11/16 21:16:25;;;;;;;6.47;3.87;;;;;;;11.21;74.33;97320.81;5051818;28;42734;-80
2022/11/16 21:18:54;;;;;;;6.07;3.97;;;;;;;11.26;74.50;97339.75;5052062;28;40886;-83
2022/11/16 21:21:21;;;;;;;7.27;3.50;;;;;;;11.20;74.79;97335.88;5050571;28;39989;-80
2022/11/16 21:23:52;;;;;;;3.93;3.17;;;;;;;11.11;74.76;97340.19;5069644;28;44178;-80
2022/11/16 21:26:24;;;;;;;6.57;3.77;;;;;;;11.06;74.53;97334.44;5048826;28;42711;-80